createdAt,value
2023-05-03T00:01:41.344Z,100630.66
2023-05-03T00:04:08.792Z,100622.66
2023-05-03T00:06:35.516Z,100626.09
2023-05-03T00:09:02.553Z,100631.13
2023-05-03T00:11:29.107Z,100632.28
2023-05-03T00:13:55.706Z,100630.59
2023-05-03T00:16:22.296Z,100615.25
2023-05-03T00:18:49.457Z,100621.13
2023-05-03T00:21:16.974Z,100616.75
2023-05-03T00:23:43.624Z,100614.72
2023-05-03T00:26:10.305Z,100618.09
2023-05-03T00:28:36.871Z,100616.94
2023-05-03T00:31:10.461Z,100614.25
2023-05-03T00:33:38.491Z,100611.53
2023-05-03T00:36:22.911Z,100618.81
2023-05-03T00:38:49.472Z,100613.03
2023-05-03T00:41:16.673Z,100617.72
2023-05-03T00:43:43.244Z,100626.00
2023-05-03T00:46:16.703Z,100622.59
2023-05-03T00:48:49.225Z,100636.59
2023-05-03T00:51:16.333Z,100631.50
2023-05-03T00:53:43.629Z,100637.19
2023-05-03T00:56:12.005Z,100636.34
2023-05-03T00:58:40.530Z,100643.91
2023-05-03T01:01:07.847Z,100639.22
2023-05-03T01:03:37.797Z,100640.28
2023-05-03T01:06:32.618Z,100644.53
2023-05-03T01:09:43.660Z,100641.97
2023-05-03T01:12:36.416Z,100654.50
2023-05-03T01:15:17.503Z,100659.22
2023-05-03T01:17:54.533Z,100658.38
2023-05-03T01:20:26.942Z,100659.06
2023-05-03T01:23:05.390Z,100653.50
2023-05-03T01:25:33.410Z,100650.94
2023-05-03T01:27:59.967Z,100653.66
2023-05-03T01:30:28.863Z,100650.09
2023-05-03T01:33:16.885Z,100653.50
2023-05-03T01:36:05.016Z,100655.50
2023-05-03T01:38:36.586Z,100658.06
2023-05-03T01:41:07.066Z,100657.22
2023-05-03T01:43:34.825Z,100658.91
2023-05-03T01:46:01.411Z,100643.69
2023-05-03T01:48:28.033Z,100649.72
2023-05-03T01:50:54.737Z,100650.13
2023-05-03T01:53:21.430Z,100649.31
2023-05-03T01:55:47.995Z,100647.44
2023-05-03T01:58:14.526Z,100641.03
2023-05-03T02:00:41.186Z,100645.59
2023-05-03T02:03:07.987Z,100649.13
2023-05-03T02:05:35.525Z,100639.31
2023-05-03T02:08:02.131Z,100634.78
2023-05-03T02:10:28.806Z,100631.53
2023-05-03T02:12:55.412Z,100627.13
2023-05-03T02:15:21.990Z,100625.56
2023-05-03T02:17:49.657Z,100629.84
2023-05-03T02:20:16.615Z,100632.53
2023-05-03T02:22:43.303Z,100628.09
2023-05-03T02:25:09.864Z,100625.25
2023-05-03T02:27:36.560Z,100627.81
2023-05-03T02:30:04.264Z,100627.66
2023-05-03T02:32:31.441Z,100625.09
2023-05-03T02:34:58.096Z,100623.41
2023-05-03T02:37:24.657Z,100613.41
2023-05-03T02:39:51.398Z,100610.91
2023-05-03T02:42:18.137Z,100608.34
2023-05-03T02:44:46.425Z,100603.06
2023-05-03T02:47:13.144Z,100604.06
2023-05-03T02:49:39.679Z,100604.91
2023-05-03T02:52:06.384Z,100603.94
2023-05-03T02:54:33.031Z,100608.78
2023-05-03T02:56:59.614Z,100605.22
2023-05-03T02:59:26.286Z,100607.94
2023-05-03T03:01:52.879Z,100605.38
2023-05-03T03:04:19.704Z,100608.22
2023-05-03T03:06:46.735Z,100604.69
2023-05-03T03:09:13.416Z,100608.06
2023-05-03T03:11:40.083Z,100601.13
2023-05-03T03:14:06.692Z,100609.38
2023-05-03T03:16:33.311Z,100608.22
2023-05-03T03:18:59.901Z,100606.38
2023-05-03T03:21:26.750Z,100604.69
2023-05-03T03:23:53.275Z,100609.94
2023-05-03T03:26:19.888Z,100613.81
2023-05-03T03:28:46.435Z,100607.25
2023-05-03T03:31:13.313Z,100605.22
2023-05-03T03:33:39.941Z,100604.22
2023-05-03T03:36:07.937Z,100613.03
2023-05-03T03:38:34.509Z,100616.75
2023-05-03T03:41:01.469Z,100611.66
2023-05-03T03:43:28.223Z,100619.03
2023-05-03T03:45:54.793Z,100622.91
2023-05-03T03:48:21.351Z,100621.19
2023-05-03T03:50:47.962Z,100625.75
2023-05-03T03:53:14.621Z,100629.31
2023-05-03T03:55:41.288Z,100624.63
2023-05-03T03:58:07.896Z,100634.56
2023-05-03T04:00:35.933Z,100629.75
2023-05-03T04:03:03.144Z,100635.28
2023-05-03T04:05:31.545Z,100634.47
2023-05-03T04:07:58.398Z,100635.16
2023-05-03T04:10:24.997Z,100634.13
2023-05-03T04:12:51.743Z,100635.00
2023-05-03T04:15:18.473Z,100638.53
2023-05-03T04:17:45.032Z,100642.41
2023-05-03T04:20:13.970Z,100636.16
2023-05-03T04:22:40.806Z,100641.25
2023-05-03T04:25:10.960Z,100644.97
2023-05-03T04:27:38.308Z,100652.63
2023-05-03T04:30:06.532Z,100649.50
2023-05-03T04:32:37.402Z,100651.22
2023-05-03T04:35:09.497Z,100658.63
2023-05-03T04:37:40.551Z,100662.03
2023-05-03T04:40:09.560Z,100663.59
2023-05-03T04:42:36.374Z,100662.44
2023-05-03T04:45:03.887Z,100670.84
2023-05-03T04:47:31.085Z,100669.81
2023-05-03T04:49:57.706Z,100672.09
2023-05-03T04:52:25.501Z,100671.50
2023-05-03T04:54:52.486Z,100672.03
2023-05-03T04:57:19.062Z,100672.59
2023-05-03T04:59:46.084Z,100678.69
2023-05-03T05:02:12.664Z,100684.09
2023-05-03T05:04:39.275Z,100691.06
2023-05-03T05:07:05.935Z,100687.06
2023-05-03T05:09:32.495Z,100684.91
2023-05-03T05:11:59.199Z,100685.63
2023-05-03T05:14:28.332Z,100689.16
2023-05-03T05:16:54.980Z,100680.28
2023-05-03T05:19:21.616Z,100686.25
2023-05-03T05:21:48.272Z,100684.94
2023-05-03T05:24:14.936Z,100685.88
2023-05-03T05:26:43.198Z,100684.56
2023-05-03T05:29:10.052Z,100689.19
2023-05-03T05:31:36.786Z,100682.00
2023-05-03T05:34:03.757Z,100684.97
2023-05-03T05:36:33.406Z,100696.34
2023-05-03T05:39:00.157Z,100692.00
2023-05-03T05:41:27.252Z,100694.56
2023-05-03T05:43:53.936Z,100690.69
2023-05-03T05:46:23.605Z,100694.06
2023-05-03T05:48:51.385Z,100699.50
2023-05-03T05:51:18.419Z,100704.47
2023-05-03T05:53:45.100Z,100699.97
2023-05-03T05:56:11.843Z,100702.91
2023-05-03T05:58:38.859Z,100721.72
2023-05-03T06:01:05.629Z,100728.00
2023-05-03T06:03:33.993Z,100724.28
2023-05-03T06:06:01.003Z,100726.53
2023-05-03T06:08:27.737Z,100730.63
2023-05-03T06:10:54.367Z,100733.53
2023-05-03T06:13:21.626Z,100734.31
2023-05-03T06:15:48.212Z,100739.56
2023-05-03T06:18:14.852Z,100738.41
2023-05-03T06:20:42.071Z,100747.75
2023-05-03T06:23:08.840Z,100746.44
2023-05-03T06:25:36.485Z,100750.69
2023-05-03T06:28:03.233Z,100747.66
2023-05-03T06:30:30.208Z,100754.84
2023-05-03T06:32:56.885Z,100761.75
2023-05-03T06:35:23.789Z,100760.78
2023-05-03T06:37:50.360Z,100757.56
2023-05-03T06:40:16.949Z,100761.53
2023-05-03T06:42:43.539Z,100755.78
2023-05-03T06:45:10.585Z,100756.03
2023-05-03T06:47:37.377Z,100759.44
2023-05-03T06:50:04.822Z,100759.84
2023-05-03T06:52:31.703Z,100767.19
2023-05-03T06:54:58.290Z,100772.31
2023-05-03T06:57:26.985Z,100762.09
2023-05-03T06:59:54.799Z,100764.00
2023-05-03T07:02:21.772Z,100759.94
2023-05-03T07:04:48.356Z,100756.38
2023-05-03T07:07:15.930Z,100759.09
2023-05-03T07:09:43.855Z,100752.50
2023-05-03T07:12:11.536Z,100755.03
2023-05-03T07:14:39.766Z,100748.91
2023-05-03T07:17:06.452Z,100749.41
2023-05-03T07:19:33.222Z,100757.75
2023-05-03T07:21:59.877Z,100750.41
2023-05-03T07:24:26.450Z,100759.94
2023-05-03T07:26:53.791Z,100760.94
2023-05-03T07:29:20.832Z,100756.16
2023-05-03T07:31:47.866Z,100763.84
2023-05-03T07:34:14.509Z,100753.25
2023-05-03T07:36:41.369Z,100760.38
2023-05-03T07:39:08.590Z,100750.47
2023-05-03T07:41:35.395Z,100758.28
2023-05-03T07:44:02.003Z,100764.25
2023-05-03T07:46:28.580Z,100762.38
2023-05-03T07:48:55.131Z,100761.97
2023-05-03T07:51:21.646Z,100760.78
2023-05-03T07:53:48.213Z,100760.38
2023-05-03T07:56:14.816Z,100760.34
2023-05-03T07:58:42.619Z,100764.84
2023-05-03T08:01:10.682Z,100764.25
2023-05-03T08:03:37.564Z,100768.91
2023-05-03T08:06:04.660Z,100761.22
2023-05-03T08:08:32.264Z,100765.47
2023-05-03T08:10:58.844Z,100772.19
2023-05-03T08:13:25.489Z,100771.09
2023-05-03T08:15:52.541Z,100778.03
2023-05-03T08:18:20.970Z,100778.25
2023-05-03T08:20:49.217Z,100779.53
2023-05-03T08:23:19.238Z,100768.69
2023-05-03T08:25:46.020Z,100775.66
2023-05-03T08:28:12.794Z,100773.56
2023-05-03T08:30:41.099Z,100786.41
2023-05-03T08:33:09.962Z,100782.16
2023-05-03T08:35:36.821Z,100777.34
2023-05-03T08:38:05.082Z,100780.19
2023-05-03T08:40:37.182Z,100775.78
2023-05-03T08:43:10.322Z,100783.09
2023-05-03T08:45:37.222Z,100786.59
2023-05-03T08:48:04.738Z,100781.38
2023-05-03T08:50:32.789Z,100785.84
2023-05-03T08:53:00.210Z,100789.31
2023-05-03T08:55:27.407Z,100790.19
2023-05-03T08:57:54.057Z,100786.88
2023-05-03T09:00:29.045Z,100786.59
2023-05-03T09:02:56.226Z,100785.38
2023-05-03T09:05:23.122Z,100783.47
2023-05-03T09:08:10.454Z,100785.75
2023-05-03T09:10:39.825Z,100782.13
2023-05-03T09:13:07.789Z,100788.19
2023-05-03T09:15:35.489Z,100781.84
2023-05-03T09:18:15.526Z,100791.47
2023-05-03T09:20:45.783Z,100780.63
2023-05-03T09:23:12.606Z,100778.22
2023-05-03T09:25:42.769Z,100778.06
2023-05-03T09:28:09.344Z,100779.47
2023-05-03T09:30:37.041Z,100777.63
2023-05-03T09:33:04.602Z,100786.34
2023-05-03T09:35:32.688Z,100782.00
2023-05-03T09:38:00.128Z,100781.19
2023-05-03T09:40:29.959Z,100781.25
2023-05-03T09:43:19.359Z,100781.06
2023-05-03T09:45:46.325Z,100771.94
2023-05-03T09:48:13.820Z,100776.34
2023-05-03T09:50:42.751Z,100781.84
2023-05-03T09:53:10.355Z,100774.53
2023-05-03T09:55:40.734Z,100779.34
2023-05-03T09:58:08.023Z,100789.31
2023-05-03T10:00:37.573Z,100785.72
2023-05-03T10:03:09.174Z,100778.81
2023-05-03T10:05:46.140Z,100781.75
2023-05-03T10:08:33.790Z,100781.28
2023-05-03T10:11:03.799Z,100779.09
2023-05-03T10:13:31.988Z,100776.53
2023-05-03T10:16:11.511Z,100776.72
2023-05-03T10:18:46.872Z,100775.88
2023-05-03T10:21:21.724Z,100776.78
2023-05-03T10:24:13.811Z,100770.84
2023-05-03T10:26:41.928Z,100775.34
2023-05-03T10:29:33.400Z,100778.56
2023-05-03T10:32:21.547Z,100775.84
2023-05-03T10:34:48.176Z,100770.00
2023-05-03T10:37:15.939Z,100767.25
2023-05-03T10:39:46.667Z,100773.34
2023-05-03T10:42:13.275Z,100768.88
2023-05-03T10:44:55.064Z,100752.97
2023-05-03T10:47:24.964Z,100755.03
2023-05-03T10:50:16.622Z,100752.25
2023-05-03T10:52:43.216Z,100767.16
2023-05-03T10:55:21.452Z,100757.50
2023-05-03T10:57:49.209Z,100759.34
2023-05-03T11:00:34.031Z,100748.19
2023-05-03T11:03:18.668Z,100758.88
2023-05-03T11:05:48.133Z,100748.78
2023-05-03T11:08:30.085Z,100758.03
2023-05-03T11:11:02.621Z,100752.94
2023-05-03T11:13:29.360Z,100753.28
2023-05-03T11:15:56.447Z,100758.72
2023-05-03T11:18:26.127Z,100754.25
2023-05-03T11:20:54.139Z,100757.25
2023-05-03T11:23:28.183Z,100760.84
2023-05-03T11:25:55.083Z,100751.66
2023-05-03T11:28:21.933Z,100753.75
2023-05-03T11:30:48.587Z,100751.91
2023-05-03T11:33:15.510Z,100764.09
2023-05-03T11:35:42.838Z,100751.91
2023-05-03T11:38:10.275Z,100752.97
2023-05-03T11:40:39.196Z,100751.34
2023-05-03T11:43:09.490Z,100744.00
2023-05-03T11:45:47.044Z,100742.75
2023-05-03T11:48:14.395Z,100748.59
2023-05-03T11:51:09.436Z,100747.38
2023-05-03T11:53:36.802Z,100748.41
2023-05-03T11:56:03.450Z,100749.78
2023-05-03T11:58:30.024Z,100747.50
2023-05-03T12:00:57.384Z,100750.06
2023-05-03T12:03:33.410Z,100743.09
2023-05-03T12:06:02.261Z,100742.19
2023-05-03T12:08:34.486Z,100746.41
2023-05-03T12:11:03.827Z,100742.00
2023-05-03T12:13:39.351Z,100744.91
2023-05-03T12:18:55.911Z,100739.41
2023-05-03T12:23:56.476Z,100736.38
2023-05-03T12:26:25.573Z,100733.94
2023-05-03T12:28:56.006Z,100724.03
2023-05-03T12:31:23.837Z,100726.72
2023-05-03T12:34:11.731Z,100727.06
2023-05-03T12:36:38.427Z,100730.81
2023-05-03T12:39:09.802Z,100725.19
2023-05-03T12:44:09.887Z,100722.63
2023-05-03T12:46:38.569Z,100724.78
2023-05-03T12:49:07.934Z,100715.53
2023-05-03T12:51:35.800Z,100717.81
2023-05-03T12:54:03.895Z,100714.31
2023-05-03T12:56:33.285Z,100712.44
2023-05-03T13:04:26.504Z,100705.19
2023-05-03T13:06:46.943Z,100708.19
2023-05-03T13:09:20.609Z,100709.69
2023-05-03T13:11:50.093Z,100711.97
2023-05-03T13:14:17.074Z,100713.38
2023-05-03T13:16:45.655Z,100715.34
2023-05-03T13:19:13.571Z,100708.00
2023-05-03T13:21:42.462Z,100707.78
2023-05-03T13:24:09.407Z,100705.31
2023-05-03T13:26:36.189Z,100707.03
2023-05-03T13:29:02.828Z,100694.66
2023-05-03T13:31:30.313Z,100702.81
2023-05-03T13:33:57.328Z,100698.13
2023-05-03T13:36:24.295Z,100689.50
2023-05-03T13:38:51.804Z,100699.94
2023-05-03T13:41:19.326Z,100688.88
2023-05-03T13:43:46.273Z,100696.69
2023-05-03T13:46:12.945Z,100688.56
2023-05-03T13:48:40.362Z,100687.78
2023-05-03T13:51:09.270Z,100695.25
2023-05-03T13:53:35.899Z,100687.34
2023-05-03T13:56:03.253Z,100680.25
2023-05-03T13:58:29.882Z,100683.66
2023-05-03T14:00:56.421Z,100687.34
2023-05-03T14:03:23.337Z,100676.31
2023-05-03T14:05:50.057Z,100668.41
2023-05-03T14:08:16.970Z,100665.97
2023-05-03T14:10:44.147Z,100666.00
2023-05-03T14:13:11.401Z,100672.22
2023-05-03T14:15:45.811Z,100673.97
2023-05-03T14:18:12.507Z,100672.28
2023-05-03T14:20:39.249Z,100667.25
2023-05-03T14:23:06.120Z,100660.31
2023-05-03T14:25:32.661Z,100664.53
2023-05-03T14:27:59.756Z,100656.75
2023-05-03T14:30:26.309Z,100665.88
2023-05-03T14:32:52.929Z,100661.03
2023-05-03T14:35:20.138Z,100652.59
2023-05-03T14:37:47.390Z,100652.34
2023-05-03T14:40:14.471Z,100663.13
2023-05-03T14:42:41.191Z,100663.28
2023-05-03T14:45:10.907Z,100663.47
2023-05-03T14:47:39.384Z,100668.03
2023-05-03T14:50:06.588Z,100665.44
2023-05-03T14:52:33.512Z,100668.06
2023-05-03T14:55:00.045Z,100676.00
2023-05-03T14:57:26.814Z,100678.47
2023-05-03T14:59:53.376Z,100670.31
2023-05-03T15:02:20.177Z,100679.47
2023-05-03T15:04:47.045Z,100679.69
2023-05-03T15:07:13.632Z,100679.59
2023-05-03T15:09:40.221Z,100679.59
2023-05-03T15:12:07.457Z,100680.50
2023-05-03T15:14:34.014Z,100681.19
2023-05-03T15:17:00.890Z,100685.22
2023-05-03T15:19:28.510Z,100674.81
2023-05-03T15:21:55.346Z,100673.75
2023-05-03T15:24:22.280Z,100674.66
2023-05-03T15:26:48.889Z,100675.88
2023-05-03T15:29:16.276Z,100683.34
2023-05-03T15:31:43.719Z,100681.38
2023-05-03T15:34:13.197Z,100689.28
2023-05-03T15:36:40.789Z,100688.47
2023-05-03T15:39:09.135Z,100691.16
2023-05-03T15:41:35.885Z,100694.31
2023-05-03T15:44:05.214Z,100687.53
2023-05-03T15:46:32.755Z,100698.41
2023-05-03T15:48:59.492Z,100689.22
2023-05-03T15:51:27.842Z,100692.91
2023-05-03T15:53:54.455Z,100685.91
2023-05-03T15:56:21.774Z,100688.75
2023-05-03T15:58:50.072Z,100683.91
2023-05-03T16:01:17.233Z,100691.44
2023-05-03T16:03:44.503Z,100689.09
2023-05-03T16:06:11.459Z,100685.97
2023-05-03T16:08:38.142Z,100689.56
2023-05-03T16:11:04.976Z,100690.88
2023-05-03T16:13:31.558Z,100690.16
2023-05-03T16:15:58.141Z,100690.16
2023-05-03T16:18:26.856Z,100698.72
2023-05-03T16:20:54.186Z,100695.34
2023-05-03T16:23:20.903Z,100701.19
2023-05-03T16:25:47.586Z,100694.69
2023-05-03T16:28:15.038Z,100696.94
2023-05-03T16:30:42.466Z,100695.25
2023-05-03T16:33:09.256Z,100686.72
2023-05-03T16:35:35.893Z,100695.38
2023-05-03T16:38:02.955Z,100697.22
2023-05-03T16:40:29.987Z,100699.97
2023-05-03T16:42:58.129Z,100701.94
2023-05-03T16:45:25.036Z,100691.59
2023-05-03T16:47:52.110Z,100694.72
2023-05-03T16:50:18.739Z,100699.50
2023-05-03T16:52:45.308Z,100693.25
2023-05-03T16:55:13.332Z,100692.25
2023-05-03T16:57:40.172Z,100691.47
2023-05-03T17:00:09.353Z,100695.59
2023-05-03T17:02:39.891Z,100698.09
2023-05-03T17:05:12.655Z,100697.84
2023-05-03T17:07:41.886Z,100701.06
2023-05-03T17:10:09.154Z,100702.13
2023-05-03T17:12:35.853Z,100702.00
2023-05-03T17:15:02.568Z,100702.38
2023-05-03T17:17:32.022Z,100704.13
2023-05-03T17:19:58.674Z,100703.25
2023-05-03T17:22:25.372Z,100703.25
2023-05-03T17:24:55.284Z,100706.91
2023-05-03T17:27:22.093Z,100703.72
2023-05-03T17:29:48.643Z,100704.78
2023-05-03T17:32:15.324Z,100708.56
2023-05-03T17:34:41.935Z,100711.44
2023-05-03T17:37:08.706Z,100715.72
2023-05-03T17:39:35.291Z,100721.03
2023-05-03T17:42:01.858Z,100724.28
2023-05-03T17:44:28.408Z,100721.38
2023-05-03T17:46:56.048Z,100716.47
2023-05-03T17:49:22.616Z,100723.91
2023-05-03T17:51:49.322Z,100723.56
2023-05-03T17:54:15.902Z,100728.84
2023-05-03T17:56:44.510Z,100733.06
2023-05-03T17:59:11.136Z,100732.38
2023-05-03T18:01:37.763Z,100742.56
2023-05-03T18:04:04.591Z,100739.31
2023-05-03T18:06:31.306Z,100745.91
2023-05-03T18:08:58.524Z,100743.72
2023-05-03T18:11:25.094Z,100741.31
2023-05-03T18:13:51.664Z,100749.44
2023-05-03T18:16:18.670Z,100764.19
2023-05-03T18:18:45.252Z,100753.50
2023-05-03T18:21:12.496Z,100754.31
2023-05-03T18:23:39.213Z,100749.31
2023-05-03T18:26:07.690Z,100759.09
2023-05-03T18:28:35.146Z,100758.78
2023-05-03T18:31:01.801Z,100761.47
2023-05-03T18:33:28.394Z,100764.81
2023-05-03T18:35:54.978Z,100770.06
2023-05-03T18:38:21.878Z,100761.91
2023-05-03T18:40:49.947Z,100767.66
2023-05-03T18:43:16.843Z,100771.00
2023-05-03T18:45:43.536Z,100779.16
2023-05-03T18:48:10.197Z,100776.25
2023-05-03T18:50:39.207Z,100774.06
2023-05-03T18:53:06.337Z,100778.63
2023-05-03T18:55:32.936Z,100781.66
2023-05-03T18:57:59.611Z,100775.16
2023-05-03T19:00:26.409Z,100785.47
2023-05-03T19:02:52.986Z,100784.78
2023-05-03T19:05:19.540Z,100796.94
2023-05-03T19:07:49.188Z,100784.88
2023-05-03T19:10:17.054Z,100795.19
2023-05-03T19:12:44.327Z,100787.38
2023-05-03T19:15:11.941Z,100792.09
2023-05-03T19:17:41.667Z,100793.41
2023-05-03T19:20:10.137Z,100799.84
2023-05-03T19:22:36.834Z,100798.31
2023-05-03T19:25:05.146Z,100807.31
2023-05-03T19:27:32.109Z,100810.94
2023-05-03T19:29:58.752Z,100816.50
2023-05-03T19:32:25.371Z,100807.69
2023-05-03T19:34:51.909Z,100813.41
2023-05-03T19:37:18.573Z,100823.84
2023-05-03T19:39:45.656Z,100823.69
2023-05-03T19:42:12.280Z,100824.28
2023-05-03T19:44:38.916Z,100828.31
2023-05-03T19:47:05.548Z,100832.72
2023-05-03T19:49:32.594Z,100834.88
2023-05-03T19:51:59.257Z,100838.06
2023-05-03T19:54:26.212Z,100830.34
2023-05-03T19:56:52.911Z,100838.50
2023-05-03T19:59:19.566Z,100837.66
2023-05-03T20:01:46.335Z,100843.69
2023-05-03T20:04:13.083Z,100851.53
2023-05-03T20:06:39.831Z,100849.38
2023-05-03T20:09:06.419Z,100861.06
2023-05-03T20:11:32.996Z,100856.66
2023-05-03T20:13:59.582Z,100862.91
2023-05-03T20:16:31.398Z,100869.03
2023-05-03T20:18:58.376Z,100870.59
2023-05-03T20:21:24.967Z,100871.59
2023-05-03T20:23:51.514Z,100864.34
2023-05-03T20:26:19.126Z,100875.84
2023-05-03T20:28:46.386Z,100869.19
2023-05-03T20:31:13.167Z,100877.59
2023-05-03T20:33:39.773Z,100874.34
2023-05-03T20:36:07.240Z,100878.22
2023-05-03T20:38:33.833Z,100876.91
2023-05-03T20:41:00.509Z,100879.31
2023-05-03T20:43:27.134Z,100884.19
2023-05-03T20:45:53.771Z,100885.78
2023-05-03T20:48:20.751Z,100884.22
2023-05-03T20:50:47.530Z,100887.38
2023-05-03T20:53:14.090Z,100894.22
2023-05-03T20:55:40.815Z,100896.84
2023-05-03T20:58:07.446Z,100899.13
2023-05-03T21:00:34.079Z,100903.09
2023-05-03T21:03:00.896Z,100898.16
2023-05-03T21:05:28.939Z,100894.44
2023-05-03T21:07:56.617Z,100894.44
2023-05-03T21:10:23.413Z,100890.72
2023-05-03T21:12:49.993Z,100890.91
2023-05-03T21:15:16.597Z,100888.19
2023-05-03T21:17:43.545Z,100894.56
2023-05-03T21:20:10.821Z,100882.91
2023-05-03T21:22:37.826Z,100892.63
2023-05-03T21:25:05.778Z,100886.19
2023-05-03T21:27:32.483Z,100887.22
2023-05-03T21:29:59.138Z,100892.06
2023-05-03T21:32:25.752Z,100899.03
2023-05-03T21:34:53.806Z,100891.50
2023-05-03T21:37:20.446Z,100896.47
2023-05-03T21:39:58.010Z,100890.38
2023-05-03T21:42:32.003Z,100894.06
2023-05-03T21:44:59.113Z,100892.38
2023-05-03T21:47:27.798Z,100894.06
2023-05-03T21:49:54.477Z,100896.06
2023-05-03T21:52:21.038Z,100895.47
2023-05-03T21:54:47.592Z,100895.63
2023-05-03T21:57:14.189Z,100898.59
2023-05-03T21:59:40.831Z,100900.16
2023-05-03T22:02:07.966Z,100891.19
2023-05-03T22:04:34.935Z,100892.50
2023-05-03T22:07:01.570Z,100890.78
2023-05-03T22:09:28.146Z,100890.63
2023-05-03T22:11:54.696Z,100888.81
2023-05-03T22:14:21.290Z,100888.19
2023-05-03T22:16:47.877Z,100889.63
2023-05-03T22:19:14.427Z,100884.50
2023-05-03T22:21:40.966Z,100886.50
2023-05-03T22:24:08.390Z,100888.38
2023-05-03T22:26:35.745Z,100882.81
2023-05-03T22:29:02.390Z,100889.50
2023-05-03T22:31:30.331Z,100885.50
2023-05-03T22:33:57.226Z,100887.63
2023-05-03T22:36:23.867Z,100877.81
2023-05-03T22:38:55.349Z,100873.56
2023-05-03T22:41:22.159Z,100865.31
2023-05-03T22:43:48.740Z,100856.63
2023-05-03T22:46:15.325Z,100859.75
2023-05-03T22:48:41.899Z,100866.00
2023-05-03T22:51:09.017Z,100857.91
2023-05-03T22:53:35.567Z,100857.78
2023-05-03T22:56:04.507Z,100856.91
2023-05-03T22:58:31.159Z,100858.34
2023-05-03T23:00:58.371Z,100863.75
2023-05-03T23:03:25.393Z,100861.16
2023-05-03T23:05:53.232Z,100862.75
2023-05-03T23:08:20.413Z,100858.34
2023-05-03T23:10:47.272Z,100853.91
2023-05-03T23:13:14.107Z,100854.19
2023-05-03T23:15:40.916Z,100846.09
2023-05-03T23:18:07.546Z,100841.69
2023-05-03T23:20:34.456Z,100841.53
2023-05-03T23:23:01.013Z,100843.25
2023-05-03T23:25:27.606Z,100837.13
2023-05-03T23:27:54.198Z,100839.94
2023-05-03T23:30:21.479Z,100841.13
2023-05-03T23:32:48.700Z,100835.13
2023-05-03T23:35:15.898Z,100838.09
2023-05-03T23:37:42.447Z,100829.00
2023-05-03T23:40:09.723Z,100826.19
2023-05-03T23:42:36.531Z,100831.13
2023-05-03T23:45:03.397Z,100830.84
2023-05-03T23:47:30.051Z,100828.13
2023-05-03T23:49:56.827Z,100823.28
2023-05-03T23:52:23.468Z,100822.28
2023-05-03T23:54:50.212Z,100819.31
2023-05-03T23:57:16.876Z,100817.31
2023-05-03T23:59:43.411Z,100818.19
